Aviation Digital Data Service (ADDS)

Output produced by METARs form (1712 UTC 01 October 2016)
found at http://www.aviationweather.gov/adds/metars/
 
KDEC 011426Z 0114/0212 02005KT P6SM SCT006 OVC030 
     FM011600 32006KT P6SM VCSH BKN015 OVC035 
     FM020000 29005KT P6SM OVC025 
     FM020800 31004KT 4SM BR BKN007